Time;durP1;ratioP1;P1;durP2;ratioP2;P2;SDS_P1;SDS_P2;PMS_P1;PMS_P2;Temp;Humidity;BMP_temperature;BMP_pressure;BME280_temperature;BME280_humidity;BME280_pressure;Samples;Min_cycle;Max_cycle;Signal;HPM_P1;HPM_P2
2022/12/02 00:01:00;;;;;;;13.95;10.45;;;;;;;5.65;100.00;103206.00;5083642;28;20058;-70
2022/12/02 00:03:26;;;;;;;16.23;10.93;;;;;;;5.62;100.00;103208.88;5110250;28;20024;-70
2022/12/02 00:05:56;;;;;;;13.90;10.20;;;;;;;5.84;100.00;103208.22;5109141;28;20042;-70
2022/12/02 00:08:24;;;;;;;14.07;9.93;;;;;;;5.74;100.00;103204.50;5100967;28;20104;-70
2022/12/02 00:10:52;;;;;;;13.43;10.50;;;;;;;5.72;100.00;103185.03;5114566;28;20050;-70
2022/12/02 00:13:26;;;;;;;14.30;10.43;;;;;;;5.71;100.00;103202.91;5104282;28;21040;-70
2022/12/02 00:16:18;;;;;;;13.88;10.40;;;;;;;5.73;100.00;103217.00;5106371;28;20172;-70
2022/12/02 00:18:43;;;;;;;15.90;10.75;;;;;;;5.69;100.00;103218.16;5112696;28;20055;-70
2022/12/02 00:21:09;;;;;;;15.77;10.50;;;;;;;5.60;100.00;103197.47;5101533;28;20039;-70
2022/12/02 00:23:34;;;;;;;13.57;10.02;;;;;;;5.79;100.00;103218.38;5073809;28;20036;-70
2022/12/02 00:26:19;;;;;;;14.05;10.48;;;;;;;5.78;100.00;103220.19;5108594;28;20043;-70
2022/12/02 00:28:45;;;;;;;14.77;11.02;;;;;;;5.78;100.00;103208.66;5085055;28;20073;-71
2022/12/02 00:31:10;;;;;;;16.65;11.02;;;;;;;5.94;100.00;103221.81;5112546;28;20040;-70
2022/12/02 00:33:35;;;;;;;13.95;10.48;;;;;;;5.92;100.00;103221.03;5105037;28;20517;-70
2022/12/02 00:36:01;;;;;;;14.65;10.80;;;;;;;5.68;100.00;103175.56;5104910;28;20031;-70
2022/12/02 00:38:26;;;;;;;16.40;11.20;;;;;;;5.85;100.00;103224.13;5111342;28;20039;-70
2022/12/02 00:40:51;;;;;;;12.90;10.48;;;;;;;5.87;100.00;103226.72;5065802;28;20040;-70
2022/12/02 00:48:45;;;;;;;13.10;10.43;;;;;;;5.87;100.00;103216.03;5099958;28;20050;-70
2022/12/02 00:51:10;;;;;;;14.85;10.45;;;;;;;5.88;100.00;103220.41;5093837;28;20068;-70
2022/12/02 00:53:35;;;;;;;14.13;9.82;;;;;;;5.89;100.00;103220.31;5106230;28;20032;-70
2022/12/02 00:56:01;;;;;;;14.35;10.60;;;;;;;5.84;100.00;103216.25;5103794;28;20410;-70
2022/12/02 00:58:26;;;;;;;13.75;10.48;;;;;;;5.87;100.00;103216.03;5097050;28;20135;-70
2022/12/02 01:00:52;;;;;;;14.55;11.00;;;;;;;5.65;100.00;103197.97;5112168;28;20036;-70
2022/12/02 01:03:17;;;;;;;16.13;10.75;;;;;;;5.72;100.00;103228.63;5103842;28;20036;-70
2022/12/02 01:05:43;;;;;;;15.75;10.65;;;;;;;5.69;100.00;103217.31;5107845;28;20028;-70
2022/12/02 01:08:08;;;;;;;13.32;10.27;;;;;;;5.84;100.00;103227.78;5092125;28;20397;-70
2022/12/02 01:10:33;;;;;;;16.85;10.80;;;;;;;5.64;100.00;103194.47;5100187;28;20499;-70
2022/12/02 01:12:59;;;;;;;16.98;10.98;;;;;;;5.69;100.00;103217.31;5113718;28;20048;-70
2022/12/02 01:15:24;;;;;;;16.40;11.43;;;;;;;5.69;100.00;103231.53;5103009;28;20528;-70
2022/12/02 01:17:50;;;;;;;16.75;11.93;;;;;;;5.69;100.00;103228.84;5106168;28;20106;-70
2022/12/02 01:20:15;;;;;;;18.05;11.63;;;;;;;5.60;100.00;103213.50;5111143;28;20028;-70
2022/12/02 01:22:40;;;;;;;16.38;11.80;;;;;;;5.62;100.00;103232.91;5098426;28;20040;-70
2022/12/02 01:25:06;;;;;;;17.00;11.93;;;;;;;5.73;100.00;103225.03;5112398;28;20047;-70
2022/12/02 01:27:32;;;;;;;17.33;10.63;;;;;;;5.84;100.00;103230.44;5104592;28;20028;-70
2022/12/02 01:29:57;;;;;;;16.73;12.20;;;;;;;5.55;100.00;103203.13;5104772;28;20065;-70
2022/12/02 01:32:23;;;;;;;16.10;11.25;;;;;;;5.60;100.00;103205.47;5110959;28;20032;-70
2022/12/02 01:34:49;;;;;;;15.68;12.27;;;;;;;5.73;100.00;103224.16;5081663;28;20044;-70
2022/12/02 01:37:14;;;;;;;15.25;11.23;;;;;;;5.49;100.00;103189.34;5109914;28;20047;-70
2022/12/02 01:39:39;;;;;;;15.40;12.27;;;;;;;5.29;100.00;103188.06;5106198;28;20045;-70
2022/12/02 01:42:05;;;;;;;15.95;12.25;;;;;;;5.57;100.00;103232.41;5104065;28;20522;-70
2022/12/02 01:44:31;;;;;;;14.95;11.27;;;;;;;5.57;100.00;103189.66;5113008;28;20031;-70
2022/12/02 01:46:57;;;;;;;18.20;11.82;;;;;;;5.45;100.00;103199.38;5099256;28;20055;-70
2022/12/02 01:49:22;;;;;;;16.40;12.63;;;;;;;5.72;100.00;103219.78;5091973;28;20034;-70
2022/12/02 01:51:52;;;;;;;17.52;12.40;;;;;;;5.77;100.00;103220.31;5110445;28;20024;-70
2022/12/02 01:54:18;;;;;;;16.20;12.05;;;;;;;5.84;100.00;103222.44;5106575;28;20036;-70
2022/12/02 01:56:43;;;;;;;15.18;11.57;;;;;;;5.83;100.00;103214.53;5116495;28;20099;-70
2022/12/02 01:59:12;;;;;;;15.80;12.20;;;;;;;5.75;100.00;103212.41;5104442;28;20131;-70
2022/12/02 02:01:37;;;;;;;16.23;11.98;;;;;;;5.69;100.00;103222.66;5110554;28;20442;-70
2022/12/02 02:04:03;;;;;;;14.85;11.02;;;;;;;5.61;100.00;103212.53;5111855;28;20046;-70
2022/12/02 02:06:33;;;;;;;16.02;11.70;;;;;;;5.73;100.00;103211.66;5104672;28;20032;-70
2022/12/02 02:08:59;;;;;;;15.75;11.45;;;;;;;5.58;100.00;103210.91;5116850;28;20031;-70
2022/12/02 02:11:25;;;;;;;15.38;11.48;;;;;;;5.68;100.00;103216.47;5106201;28;20032;-70
2022/12/02 02:13:52;;;;;;;17.63;11.73;;;;;;;5.75;100.00;103215.06;5091460;28;20028;-70
2022/12/02 02:16:17;;;;;;;17.00;12.20;;;;;;;5.59;100.00;103212.59;5114395;28;20039;-69
2022/12/02 02:18:42;;;;;;;14.88;11.50;;;;;;;5.61;100.00;103221.38;5101539;28;20039;-70
2022/12/02 02:21:27;;;;;;;14.60;11.43;;;;;;;5.35;100.00;103196.50;5095711;28;20081;-70
2022/12/02 02:23:53;;;;;;;14.60;10.93;;;;;;;5.57;100.00;103211.88;5111047;28;20027;-70
2022/12/02 02:26:18;;;;;;;15.13;11.15;;;;;;;5.58;100.00;103200.22;5105841;28;20024;-70
2022/12/02 02:28:44;;;;;;;14.23;11.02;;;;;;;5.62;100.00;103217.75;5116485;28;20035;-70
2022/12/02 02:31:09;;;;;;;13.90;11.15;;;;;;;5.82;100.00;103210.16;5103656;28;20031;-70
2022/12/02 02:33:36;;;;;;;13.63;11.18;;;;;;;5.37;100.00;103199.06;5111681;28;20265;-70
2022/12/02 02:36:02;;;;;;;13.70;11.05;;;;;;;5.64;100.00;103215.81;5111997;28;20106;-70
2022/12/02 02:38:29;;;;;;;15.13;11.82;;;;;;;5.41;100.00;103171.19;5103045;28;20087;-70
2022/12/02 02:40:56;;;;;;;15.18;10.75;;;;;;;5.71;100.00;103213.59;5115030;28;20032;-70
2022/12/02 02:43:25;;;;;;;13.15;10.85;;;;;;;5.70;100.00;103216.38;5088187;28;20414;-70
2022/12/02 02:45:53;;;;;;;13.77;10.98;;;;;;;5.60;100.00;103205.47;5109589;28;20103;-70
2022/12/02 02:48:19;;;;;;;13.60;10.90;;;;;;;5.46;100.00;103174.38;5114200;28;20030;-70
2022/12/02 02:50:46;;;;;;;14.23;10.77;;;;;;;5.61;100.00;103216.03;5101884;28;20494;-71
2022/12/02 02:53:14;;;;;;;14.45;11.00;;;;;;;5.62;100.00;103212.41;5114052;28;20159;-70
2022/12/02 02:55:40;;;;;;;18.60;11.90;;;;;;;5.59;100.00;103209.94;5107551;28;20028;-70
2022/12/02 02:58:29;;;;;;;14.68;11.23;;;;;;;5.62;100.00;103209.72;5107172;28;20136;-70
2022/12/02 03:01:01;;;;;;;14.02;10.55;;;;;;;5.56;100.00;103215.53;5115483;28;20042;-71
2022/12/02 03:03:30;;;;;;;13.48;11.15;;;;;;;5.71;100.00;103204.72;5105665;28;20053;-70
2022/12/02 03:05:58;;;;;;;14.05;11.13;;;;;;;5.72;100.00;103206.41;5107284;28;20032;-70
2022/12/02 03:08:25;;;;;;;15.52;11.13;;;;;;;5.58;100.00;103221.59;5113462;28;20051;-70
2022/12/02 03:10:53;;;;;;;14.75;11.63;;;;;;;5.58;100.00;103224.25;5102780;28;20028;-70
2022/12/02 03:13:19;;;;;;;13.02;11.10;;;;;;;5.33;100.00;103192.22;5113611;28;20032;-70
2022/12/02 03:15:45;;;;;;;14.30;11.20;;;;;;;5.42;100.00;103175.56;5107698;28;20505;-70
2022/12/02 03:18:11;;;;;;;14.38;11.20;;;;;;;5.62;100.00;103209.72;5105943;28;20036;-70
2022/12/02 03:20:37;;;;;;;14.07;11.15;;;;;;;5.55;100.00;103221.81;5116175;28;20072;-71
2022/12/02 03:23:03;;;;;;;13.55;10.70;;;;;;;5.65;100.00;103214.00;5102045;28;20047;-70
2022/12/02 03:25:29;;;;;;;13.05;10.50;;;;;;;5.52;100.00;103202.47;5111355;28;20032;-70
2022/12/02 03:27:55;;;;;;;13.80;10.90;;;;;;;5.58;100.00;103184.19;5110094;28;20032;-70
2022/12/02 03:30:20;;;;;;;13.65;11.15;;;;;;;5.81;100.00;103209.28;5103723;28;20032;-70
2022/12/02 03:32:46;;;;;;;14.65;11.30;;;;;;;5.95;100.00;103204.81;5114460;28;20111;-70
2022/12/02 03:35:11;;;;;;;15.00;11.50;;;;;;;6.02;99.87;103208.75;5102632;28;20036;-70
2022/12/02 03:37:37;;;;;;;14.00;10.93;;;;;;;5.91;100.00;103204.16;5110592;28;20028;-70
2022/12/02 03:40:03;;;;;;;14.23;11.63;;;;;;;5.75;100.00;103204.38;5110865;28;20027;-70
2022/12/02 03:42:29;;;;;;;14.70;11.18;;;;;;;5.82;100.00;103199.47;5101922;28;20119;-70
2022/12/02 03:44:54;;;;;;;15.10;11.68;;;;;;;5.72;99.89;103169.03;5115641;28;20088;-70
2022/12/02 03:47:20;;;;;;;15.52;11.05;;;;;;;5.81;99.69;103200.44;5103737;28;20134;-70
2022/12/02 03:49:46;;;;;;;14.73;11.48;;;;;;;5.79;100.00;103202.34;5109086;28;20028;-70
2022/12/02 03:52:11;;;;;;;12.82;10.30;;;;;;;5.84;99.63;103206.41;5110518;28;20465;-70
2022/12/02 03:54:37;;;;;;;14.32;11.18;;;;;;;5.79;99.24;103197.00;5100834;28;20419;-70
2022/12/02 03:57:05;;;;;;;16.17;11.80;;;;;;;5.80;98.86;103196.06;5115062;28;20107;-71
2022/12/02 03:59:30;;;;;;;13.13;11.05;;;;;;;5.80;99.23;103204.06;5105798;28;20500;-70
2022/12/02 04:01:56;;;;;;;14.93;11.20;;;;;;;5.82;98.95;103212.81;5106594;28;20036;-70
2022/12/02 04:04:21;;;;;;;13.90;11.65;;;;;;;5.84;98.91;103216.25;5094689;28;20035;-70
2022/12/02 04:06:47;;;;;;;13.80;10.93;;;;;;;5.68;98.84;103215.63;5101798;28;20132;-70
2022/12/02 04:09:12;;;;;;;14.00;11.25;;;;;;;5.68;99.07;103216.47;5112481;28;20117;-70
2022/12/02 04:11:38;;;;;;;13.80;10.65;;;;;;;5.52;98.66;103189.13;5106604;28;20024;-71
2022/12/02 04:14:03;;;;;;;13.95;11.25;;;;;;;5.66;98.76;103218.38;5105812;28;20409;-70
2022/12/02 04:16:28;;;;;;;14.43;11.35;;;;;;;5.59;98.69;103217.09;5113834;28;20059;-71
2022/12/02 04:18:54;;;;;;;14.93;11.32;;;;;;;5.57;98.52;103209.22;5101178;28;20036;-70
2022/12/02 04:21:20;;;;;;;14.27;11.00;;;;;;;5.63;98.47;103219.47;5094173;28;20024;-70
2022/12/02 04:23:46;;;;;;;14.05;10.93;;;;;;;5.70;98.26;103217.22;5106730;28;20146;-70
2022/12/02 04:26:11;;;;;;;14.45;11.18;;;;;;;5.52;98.41;103207.81;5103899;28;20351;-70
2022/12/02 04:28:36;;;;;;;14.30;10.68;;;;;;;5.58;98.10;103216.25;5114742;28;20141;-70
2022/12/02 04:31:02;;;;;;;15.43;11.50;;;;;;;5.45;97.91;103196.72;5100423;28;20030;-71
2022/12/02 04:33:27;;;;;;;13.13;10.65;;;;;;;5.31;98.49;103187.00;5111259;28;20040;-70
2022/12/02 04:35:53;;;;;;;13.95;10.95;;;;;;;5.41;98.92;103217.44;5108525;28;20435;-70
2022/12/02 04:38:18;;;;;;;14.40;10.80;;;;;;;5.49;98.45;103213.38;5104153;28;20032;-70
2022/12/02 04:40:43;;;;;;;14.77;11.30;;;;;;;5.44;98.69;103213.69;5108570;28;20138;-70
2022/12/02 04:43:09;;;;;;;12.18;9.88;;;;;;;5.15;100.00;103213.03;5095981;28;20036;-70
2022/12/02 04:45:34;;;;;;;13.40;10.07;;;;;;;5.10;100.00;103205.34;5087442;28;20084;-70
2022/12/02 04:48:00;;;;;;;12.95;10.38;;;;;;;5.19;100.00;103204.69;5105550;28;20036;-71
2022/12/02 04:50:25;;;;;;;12.05;9.88;;;;;;;5.30;100.00;103208.47;5094508;28;20161;-70
2022/12/02 04:52:51;;;;;;;13.70;10.20;;;;;;;5.33;100.00;103200.22;5099867;28;20071;-70
2022/12/02 04:55:16;;;;;;;13.23;9.95;;;;;;;5.38;99.43;103179.41;5094612;28;20082;-70
2022/12/02 04:57:41;;;;;;;12.23;10.18;;;;;;;5.37;99.57;103180.38;5104876;28;20035;-70
2022/12/02 05:00:08;;;;;;;11.63;9.55;;;;;;;5.61;99.02;103202.69;5104303;28;20036;-70
2022/12/02 05:02:33;;;;;;;11.95;9.70;;;;;;;5.57;99.39;103208.38;5109777;28;20024;-70
2022/12/02 05:04:59;;;;;;;12.82;10.18;;;;;;;5.55;99.84;103205.78;5114342;28;20031;-69
2022/12/02 05:07:25;;;;;;;13.88;10.25;;;;;;;5.49;99.79;103203.53;5102233;28;20209;-70
2022/12/02 05:09:50;;;;;;;12.50;9.70;;;;;;;5.59;99.37;103209.09;5106766;28;20028;-69
2022/12/02 05:12:15;;;;;;;12.48;9.82;;;;;;;5.46;99.89;103205.56;5111682;28;20042;-69
2022/12/02 05:14:41;;;;;;;12.45;9.93;;;;;;;5.39;100.00;103202.47;5100981;28;20055;-68
2022/12/02 05:17:06;;;;;;;13.18;10.07;;;;;;;5.56;99.83;103210.19;5115429;28;20036;-69
2022/12/02 05:19:32;;;;;;;12.70;10.70;;;;;;;5.60;99.99;103214.34;5098750;28;20035;-67
2022/12/02 05:21:57;;;;;;;13.15;10.02;;;;;;;5.63;99.50;103216.81;5098062;28;20062;-69
2022/12/02 05:24:23;;;;;;;14.45;10.45;;;;;;;5.47;99.19;103178.78;5100848;28;20113;-68
2022/12/02 05:26:48;;;;;;;12.93;10.63;;;;;;;5.76;99.32;103214.13;5095207;28;20024;-69
2022/12/02 05:29:17;;;;;;;15.50;11.30;;;;;;;5.82;98.81;103211.00;5106879;28;20051;-70
2022/12/02 05:31:43;;;;;;;14.73;11.13;;;;;;;5.84;98.67;103205.56;5113641;28;20050;-69
2022/12/02 05:34:08;;;;;;;13.68;10.93;;;;;;;5.87;98.51;103213.34;5079119;28;20035;-70
2022/12/02 05:36:34;;;;;;;13.77;10.18;;;;;;;5.84;99.01;103217.09;5104497;28;20085;-69
2022/12/02 05:38:59;;;;;;;13.52;10.93;;;;;;;5.89;98.63;103214.97;5099057;28;20080;-70
2022/12/02 05:41:25;;;;;;;11.07;9.55;;;;;;;6.01;98.18;103207.91;5105321;28;20044;-70
2022/12/02 05:43:50;;;;;;;12.63;9.57;;;;;;;6.06;98.10;103221.81;5111706;28;20028;-69
2022/12/02 05:46:20;;;;;;;11.25;9.57;;;;;;;6.01;97.78;103229.28;5113249;28;20031;-70
2022/12/02 05:48:49;;;;;;;11.52;9.90;;;;;;;6.02;98.07;103225.63;5102744;28;20468;-72
2022/12/02 05:51:17;;;;;;;11.45;9.35;;;;;;;5.99;97.77;103225.84;5104685;28;20449;-72
2022/12/02 05:53:45;;;;;;;11.68;9.02;;;;;;;6.07;97.88;103230.66;5112164;28;20486;-72
2022/12/02 05:56:17;;;;;;;11.60;8.65;;;;;;;6.02;97.93;103225.63;5112729;28;20401;-72
2022/12/02 05:58:42;;;;;;;10.80;8.77;;;;;;;5.99;97.69;103222.34;5105805;28;20060;-72
2022/12/02 06:01:47;;;;;;;10.95;8.65;;;;;;;5.97;97.94;103232.28;5117887;28;20035;-70
2022/12/02 06:04:19;;;;;;;12.73;8.75;;;;;;;5.75;99.31;103238.25;5038457;28;20044;-70
2022/12/02 06:06:45;;;;;;;10.43;8.77;;;;;;;5.69;100.00;103236.00;5109887;28;20451;-70
2022/12/02 06:09:29;;;;;;;11.30;9.20;;;;;;;5.61;100.00;103232.06;5106269;28;20020;-71
2022/12/02 06:11:55;;;;;;;11.07;8.52;;;;;;;5.68;100.00;103234.31;5110379;28;20081;-68
2022/12/02 06:14:24;;;;;;;10.40;8.60;;;;;;;5.62;100.00;103228.44;5110746;28;20402;-71
2022/12/02 06:16:56;;;;;;;10.38;8.25;;;;;;;5.73;99.65;103243.72;5118358;28;20116;-71
2022/12/02 06:19:52;;;;;;;10.88;8.75;;;;;;;5.74;99.34;103247.25;5105556;28;20028;-71
2022/12/02 06:22:19;;;;;;;15.95;8.63;;;;;;;5.59;99.50;103239.31;5098364;28;20430;-71
2022/12/02 06:24:44;;;;;;;11.88;8.60;;;;;;;5.70;99.45;103251.09;5101281;28;20039;-71
2022/12/02 06:27:16;;;;;;;10.20;8.23;;;;;;;5.58;99.79;103253.66;5117485;27;20056;-71
2022/12/02 06:29:48;;;;;;;10.48;8.70;;;;;;;5.24;100.00;103228.41;5107454;28;20039;-71
2022/12/02 06:32:19;;;;;;;10.82;8.70;;;;;;;5.36;100.00;103251.63;5106915;28;20024;-71
2022/12/02 06:34:45;;;;;;;12.40;8.98;;;;;;;5.24;100.00;103208.88;5101816;28;20558;-71
2022/12/02 06:37:13;;;;;;;11.63;9.02;;;;;;;5.53;99.99;103249.56;5115100;28;20394;-72
2022/12/02 06:39:39;;;;;;;10.90;8.88;;;;;;;5.52;100.00;103248.72;5107317;28;20489;-71
2022/12/02 06:42:19;;;;;;;11.88;9.02;;;;;;;5.45;100.00;103260.78;5108824;28;20047;-71
2022/12/02 06:45:03;;;;;;;12.40;9.07;;;;;;;5.31;99.88;103228.84;5116605;28;20061;-71
2022/12/02 06:47:31;;;;;;;11.25;8.73;;;;;;;5.55;99.31;103263.69;5105914;28;20117;-71
2022/12/02 06:50:03;;;;;;;11.20;9.25;;;;;;;5.53;99.05;103266.47;5109831;28;20031;-71
2022/12/02 06:52:31;;;;;;;11.55;9.25;;;;;;;5.61;98.40;103268.63;5113954;28;20077;-71
2022/12/02 06:55:00;;;;;;;12.48;9.27;;;;;;;5.59;98.60;103267.84;5103709;28;20036;-71
2022/12/02 06:57:26;;;;;;;16.67;13.00;;;;;;;5.63;98.14;103261.34;5114219;28;20101;-71
2022/12/02 06:59:51;;;;;;;31.88;25.17;;;;;;;5.65;97.69;103270.94;5110033;28;20052;-71
2022/12/02 07:02:39;;;;;;;15.18;11.10;;;;;;;5.55;97.88;103263.69;5107683;28;20040;-71
2022/12/02 07:05:04;;;;;;;11.98;9.38;;;;;;;5.40;98.86;103271.81;5116190;28;20020;-71
2022/12/02 07:07:31;;;;;;;12.18;8.85;;;;;;;5.32;98.40;103251.91;5106257;28;20035;-71
2022/12/02 07:10:06;;;;;;;14.50;9.10;;;;;;;5.56;97.93;103268.06;5091486;28;20043;-71
2022/12/02 07:12:41;;;;;;;12.43;10.00;;;;;;;5.55;97.70;103277.03;5113816;28;20028;-71
2022/12/02 07:15:18;;;;;;;12.35;9.20;;;;;;;5.53;98.26;103271.81;5103368;28;20039;-71
2022/12/02 07:18:15;;;;;;;12.60;9.43;;;;;;;5.56;98.24;103276.94;5110146;28;20028;-71
2022/12/02 07:20:43;;;;;;;10.88;9.00;;;;;;;5.55;98.44;103274.38;5116145;28;20030;-72
2022/12/02 07:23:23;;;;;;;11.52;8.73;;;;;;;5.59;98.18;103276.72;5086666;28;20038;-71
2022/12/02 07:25:54;;;;;;;9.70;8.30;;;;;;;5.71;97.98;103284.84;5107410;28;20031;-71
2022/12/02 07:28:25;;;;;;;11.23;8.82;;;;;;;5.74;97.27;103288.16;5109746;28;20133;-71
2022/12/02 07:31:13;;;;;;;11.02;8.88;;;;;;;5.77;97.56;103295.13;5099490;28;20024;-71
2022/12/02 07:33:38;;;;;;;12.45;8.68;;;;;;;5.62;98.46;103287.19;5108480;28;20032;-71
2022/12/02 07:36:04;;;;;;;10.15;8.52;;;;;;;5.65;98.70;103288.78;5108885;28;20027;-71
2022/12/02 07:38:32;;;;;;;10.52;8.40;;;;;;;5.45;100.00;103294.66;5102124;28;20040;-70
2022/12/02 07:40:57;;;;;;;9.45;7.53;;;;;;;5.57;99.84;103294.69;5097732;28;20043;-71
2022/12/02 07:43:23;;;;;;;10.27;7.97;;;;;;;5.42;99.90;103258.34;5103872;28;20540;-71
2022/12/02 07:45:48;;;;;;;9.93;7.40;;;;;;;5.36;100.00;103297.00;5109199;28;20059;-71
2022/12/02 07:48:13;;;;;;;10.18;7.75;;;;;;;5.53;100.00;103297.63;5111141;28;20050;-71
2022/12/02 07:50:39;;;;;;;10.93;8.40;;;;;;;5.74;99.93;103296.19;5103823;27;20376;-71
2022/12/02 07:53:04;;;;;;;10.15;8.10;;;;;;;5.61;100.00;103301.50;5115711;28;20020;-71
2022/12/02 07:55:30;;;;;;;8.73;7.35;;;;;;;5.48;100.00;103305.97;5104651;28;20043;-71
2022/12/02 07:57:55;;;;;;;9.23;7.25;;;;;;;5.63;100.00;103291.59;5107736;28;20503;-70
2022/12/02 08:00:22;;;;;;;9.23;7.25;;;;;;;5.72;99.45;103289.22;5111332;28;20097;-71
2022/12/02 08:02:47;;;;;;;9.27;7.18;;;;;;;5.72;99.07;103297.25;5101819;28;20044;-71
2022/12/02 08:05:13;;;;;;;8.77;6.82;;;;;;;5.68;99.58;103295.75;5096905;28;20149;-71
2022/12/02 08:07:38;;;;;;;8.27;6.90;;;;;;;5.72;99.46;103302.59;5105061;28;20506;-71
2022/12/02 08:10:05;;;;;;;9.10;7.65;;;;;;;5.73;99.29;103297.16;5106958;28;20085;-71
2022/12/02 08:12:30;;;;;;;8.20;7.03;;;;;;;5.55;98.91;103283.22;5113132;28;20024;-71
2022/12/02 08:14:56;;;;;;;8.57;5.90;;;;;;;5.40;98.47;103277.13;5084411;28;20036;-71
2022/12/02 08:17:21;;;;;;;6.20;5.03;;;;;;;5.39;98.75;103294.09;5113883;28;20032;-71
2022/12/02 08:19:46;;;;;;;6.20;4.65;;;;;;;5.44;97.61;103293.81;5105841;28;20050;-71
2022/12/02 08:22:12;;;;;;;6.50;4.72;;;;;;;5.55;96.25;103299.25;5088655;28;20093;-71
2022/12/02 08:24:37;;;;;;;5.40;4.35;;;;;;;5.47;95.21;103314.97;5096026;28;20028;-71
2022/12/02 08:27:03;;;;;;;5.32;4.05;;;;;;;5.69;94.39;103302.78;5100308;28;20035;-71
2022/12/02 08:29:33;;;;;;;5.15;4.15;;;;;;;5.77;93.81;103313.81;5111194;28;20380;-71
2022/12/02 08:31:59;;;;;;;5.97;4.30;;;;;;;5.96;92.86;103316.09;5107326;28;20383;-71
2022/12/02 08:34:24;;;;;;;4.93;4.43;;;;;;;5.86;91.94;103306.03;5103666;28;20089;-70
2022/12/02 08:36:49;;;;;;;5.35;4.10;;;;;;;5.78;92.19;103312.84;5113954;28;20070;-71
2022/12/02 08:39:15;;;;;;;6.03;4.60;;;;;;;5.91;92.18;103316.38;5101373;28;20088;-71
2022/12/02 08:41:41;;;;;;;6.18;4.00;;;;;;;5.88;92.02;103319.25;5111053;28;20474;-71
2022/12/02 08:44:06;;;;;;;4.93;4.15;;;;;;;6.01;91.51;103304.13;5091958;28;20028;-71
2022/12/02 08:46:32;;;;;;;5.35;4.47;;;;;;;6.08;91.03;103309.88;5103673;28;20046;-71
2022/12/02 08:48:58;;;;;;;5.22;4.45;;;;;;;6.17;90.38;103303.91;5113304;28;20042;-71
2022/12/02 08:51:23;;;;;;;5.18;4.45;;;;;;;6.20;90.15;103302.84;5102764;28;20027;-71
2022/12/02 08:53:49;;;;;;;7.03;5.05;;;;;;;6.05;90.41;103313.63;5091546;28;20418;-71
2022/12/02 08:56:15;;;;;;;5.38;4.25;;;;;;;6.11;90.61;103307.00;5111006;28;20031;-71
2022/12/02 08:58:40;;;;;;;5.20;4.68;;;;;;;6.02;90.46;103300.47;5102005;28;20099;-71
2022/12/02 09:01:14;;;;;;;6.40;4.70;;;;;;;6.07;90.61;103318.88;5115018;28;20024;-71
2022/12/02 09:03:40;;;;;;;5.28;4.40;;;;;;;6.13;90.99;103312.25;5104565;28;20405;-71
2022/12/02 09:06:05;;;;;;;5.80;4.68;;;;;;;5.88;91.83;103327.28;5106833;28;20047;-70
2022/12/02 09:08:31;;;;;;;9.90;5.05;;;;;;;6.11;90.98;103323.03;5113291;28;20027;-71
2022/12/02 09:10:56;;;;;;;6.47;5.07;;;;;;;6.22;90.72;103328.47;5101571;28;20039;-71
2022/12/02 09:13:22;;;;;;;7.40;5.20;;;;;;;6.22;90.94;103322.28;5095304;28;20040;-71
2022/12/02 09:15:47;;;;;;;6.97;4.57;;;;;;;6.32;90.30;103323.31;5105587;28;20036;-71
2022/12/02 09:18:12;;;;;;;5.57;4.85;;;;;;;6.21;90.80;103332.13;5087471;28;20036;-71
2022/12/02 09:20:38;;;;;;;5.25;4.45;;;;;;;6.30;91.00;103317.25;5113839;28;20023;-71
2022/12/02 09:23:03;;;;;;;8.93;6.70;;;;;;;6.39;90.92;103321.06;5101294;28;20044;-71
2022/12/02 09:25:29;;;;;;;5.80;4.97;;;;;;;6.07;90.67;103330.41;5111340;28;20038;-71
2022/12/02 09:27:54;;;;;;;5.82;4.43;;;;;;;6.00;90.44;103318.44;5106651;28;20028;-71
2022/12/02 09:30:19;;;;;;;7.43;5.90;;;;;;;6.16;89.35;103320.03;5104945;28;20512;-70
2022/12/02 09:32:45;;;;;;;4.47;3.97;;;;;;;6.20;88.77;103326.91;5113114;28;20031;-71
2022/12/02 09:35:10;;;;;;;5.68;4.20;;;;;;;6.18;88.40;103320.78;5099799;28;20039;-71
2022/12/02 09:37:36;;;;;;;4.90;4.00;;;;;;;6.21;88.13;103313.41;5109753;28;20028;-71
2022/12/02 09:40:02;;;;;;;9.50;6.72;;;;;;;6.21;87.46;103321.41;5108344;28;20042;-71
2022/12/02 09:42:28;;;;;;;5.40;4.30;;;;;;;6.06;87.16;103327.84;5086141;28;20033;-71
2022/12/02 09:44:53;;;;;;;4.60;3.80;;;;;;;6.31;86.22;103321.63;5115091;28;20102;-71
2022/12/02 09:47:20;;;;;;;5.25;3.80;;;;;;;6.29;84.76;103327.09;5102045;28;20027;-71
2022/12/02 09:49:49;;;;;;;3.70;2.92;;;;;;;6.22;84.59;103335.63;5108836;28;20024;-71
2022/12/02 09:52:18;;;;;;;4.00;3.25;;;;;;;6.06;83.91;103302.00;5111420;28;20028;-70
2022/12/02 09:54:45;;;;;;;4.00;3.50;;;;;;;6.17;83.49;103311.06;5101450;28;20105;-71
2022/12/02 09:57:14;;;;;;;4.20;3.58;;;;;;;6.43;82.75;103336.81;5084474;28;20023;-71
2022/12/02 09:59:43;;;;;;;3.83;3.10;;;;;;;6.26;81.44;103324.63;5109111;28;20044;-70
2022/12/02 10:02:18;;;;;;;3.50;3.05;;;;;;;6.21;81.86;103324.09;5108520;28;20107;-70
2022/12/02 10:04:44;;;;;;;4.20;3.28;;;;;;;6.59;82.15;103325.88;5100320;28;20028;-70
2022/12/02 10:07:12;;;;;;;5.65;3.70;;;;;;;6.54;82.18;103325.31;5111995;28;20090;-71
2022/12/02 10:09:38;;;;;;;4.03;3.38;;;;;;;6.34;83.07;103326.75;5103942;28;20061;-71
2022/12/02 10:12:04;;;;;;;3.72;3.08;;;;;;;6.20;83.04;103330.41;5107916;28;20055;-71
2022/12/02 10:14:30;;;;;;;4.85;3.40;;;;;;;5.72;83.13;103276.72;5115795;28;20054;-71
2022/12/02 10:16:55;;;;;;;5.30;4.00;;;;;;;6.49;83.42;103330.13;5103158;28;20040;-71
2022/12/02 10:19:21;;;;;;;4.55;3.90;;;;;;;6.30;83.98;103325.28;5114832;28;20111;-70
2022/12/02 10:21:47;;;;;;;6.38;4.80;;;;;;;6.29;85.70;103334.25;5108239;28;20081;-71
2022/12/02 10:24:12;;;;;;;5.82;4.78;;;;;;;6.02;87.64;103331.69;5108156;28;20450;-71
2022/12/02 10:26:44;;;;;;;6.63;5.22;;;;;;;6.00;88.87;103334.50;5115661;28;20039;-69
2022/12/02 10:29:15;;;;;;;7.00;5.30;;;;;;;5.91;89.43;103334.25;5103118;28;20035;-70
2022/12/02 10:31:53;;;;;;;7.65;5.28;;;;;;;5.90;89.03;103333.38;5113369;28;20028;-71
2022/12/02 10:34:20;;;;;;;6.70;5.35;;;;;;;5.96;89.06;103329.44;5114205;28;20031;-70
2022/12/02 10:36:46;;;;;;;5.80;4.50;;;;;;;6.03;88.21;103322.75;5103912;28;20028;-71
2022/12/02 10:39:24;;;;;;;6.35;4.70;;;;;;;5.95;88.58;103327.75;5118808;28;20063;-71
2022/12/02 10:42:09;;;;;;;6.55;4.82;;;;;;;5.56;89.70;103329.47;5110597;28;20028;-70
2022/12/02 10:44:41;;;;;;;4.83;3.80;;;;;;;5.64;89.44;103322.66;5106268;28;20422;-70
2022/12/02 10:47:19;;;;;;;6.70;4.65;;;;;;;5.44;89.27;103323.19;5116383;28;20027;-70
2022/12/02 10:49:49;;;;;;;5.28;4.60;;;;;;;5.51;89.29;103319.13;5108428;28;20039;-70
2022/12/02 10:52:15;;;;;;;5.50;4.38;;;;;;;5.41;89.23;103326.91;5107546;28;20077;-71
2022/12/02 10:54:45;;;;;;;6.45;4.47;;;;;;;5.57;88.03;103339.22;5117290;28;20034;-70
2022/12/02 10:57:22;;;;;;;4.90;4.00;;;;;;;5.39;88.17;103330.63;5103841;28;20114;-71
2022/12/02 10:59:47;;;;;;;4.40;3.75;;;;;;;5.49;87.66;103338.88;5111204;28;20070;-70
2022/12/02 11:02:35;;;;;;;4.78;3.75;;;;;;;5.41;87.32;103334.91;5094822;28;20028;-70
2022/12/02 11:05:13;;;;;;;5.80;3.90;;;;;;;5.45;87.22;103332.03;5102672;28;20055;-70
2022/12/02 11:07:39;;;;;;;5.50;3.97;;;;;;;5.49;87.22;103322.84;5113449;28;20024;-70
2022/12/02 11:10:08;;;;;;;5.75;4.82;;;;;;;5.45;87.82;103316.00;5110517;28;20269;-70
2022/12/02 11:12:58;;;;;;;6.60;4.40;;;;;;;5.35;87.70;103313.09;5088179;28;20036;-71
2022/12/02 11:15:37;;;;;;;5.47;4.43;;;;;;;5.50;86.80;103322.75;5090978;28;20020;-70
2022/12/02 11:18:05;;;;;;;5.68;4.40;;;;;;;5.59;86.52;103310.59;5110401;28;20428;-70
2022/12/02 11:20:44;;;;;;;5.78;4.28;;;;;;;5.51;86.70;103295.09;5115194;28;20042;-70
2022/12/02 11:23:26;;;;;;;5.85;4.70;;;;;;;5.53;86.95;103321.69;5102391;28;20024;-71
2022/12/02 11:25:55;;;;;;;6.07;4.60;;;;;;;5.49;86.99;103291.66;5110168;28;20036;-71
2022/12/02 11:28:26;;;;;;;7.07;4.88;;;;;;;5.77;86.04;103316.50;5113273;28;20031;-71
2022/12/02 11:31:10;;;;;;;6.55;4.78;;;;;;;5.54;86.86;103316.25;5102614;28;20040;-71